sensor_id;sensor_type;location;lat;lon;timestamp;pressure;altitude;pressure_sealevel;temperature;humidity
72548;BME280;60570;50.848;6.776;2022-08-19T00:00:14;100233.59;;;23.93;50.58
72548;BME280;60570;50.848;6.776;2022-08-19T00:01:15;100227.56;;;23.91;50.93
72548;BME280;60570;50.848;6.776;2022-08-19T00:02:16;100243.34;;;23.92;50.87
72548;BME280;60570;50.848;6.776;2022-08-19T00:03:16;100234.06;;;23.88;50.61
72548;BME280;60570;50.848;6.776;2022-08-19T00:04:19;100236.47;;;23.90;51.08
72548;BME280;60570;50.848;6.776;2022-08-19T00:05:21;100231.25;;;23.88;50.80
72548;BME280;60570;50.848;6.776;2022-08-19T00:06:22;100225.56;;;23.88;50.73
72548;BME280;60570;50.848;6.776;2022-08-19T00:07:22;100228.78;;;23.90;50.60
72548;BME280;60570;50.848;6.776;2022-08-19T00:08:22;100227.19;;;23.89;50.95
72548;BME280;60570;50.848;6.776;2022-08-19T00:09:24;100223.91;;;23.91;50.62
72548;BME280;60570;50.848;6.776;2022-08-19T00:10:24;100220.69;;;23.89;50.63
72548;BME280;60570;50.848;6.776;2022-08-19T00:11:25;100225.19;;;23.86;50.83
72548;BME280;60570;50.848;6.776;2022-08-19T00:12:27;100222.28;;;23.90;50.61
72548;BME280;60570;50.848;6.776;2022-08-19T00:13:28;100224.41;;;23.86;50.80
72548;BME280;60570;50.848;6.776;2022-08-19T00:14:29;100222.44;;;23.83;50.86
72548;BME280;60570;50.848;6.776;2022-08-19T00:15:33;100227.28;;;23.82;50.94
72548;BME280;60570;50.848;6.776;2022-08-19T00:16:34;100225.69;;;23.81;51.04
72548;BME280;60570;50.848;6.776;2022-08-19T00:17:34;100223.22;;;23.83;50.91
72548;BME280;60570;50.848;6.776;2022-08-19T00:18:34;100224.44;;;23.82;50.90
72548;BME280;60570;50.848;6.776;2022-08-19T00:19:36;100237.06;;;23.81;50.85
72548;BME280;60570;50.848;6.776;2022-08-19T00:20:36;100238.66;;;23.82;50.70
72548;BME280;60570;50.848;6.776;2022-08-19T00:21:41;100229.72;;;23.84;50.86
72548;BME280;60570;50.848;6.776;2022-08-19T00:22:41;100232.97;;;23.82;50.87
72548;BME280;60570;50.848;6.776;2022-08-19T00:23:42;100234.66;;;23.80;51.01
72548;BME280;60570;50.848;6.776;2022-08-19T00:24:44;100234.69;;;23.76;50.84
72548;BME280;60570;50.848;6.776;2022-08-19T00:25:45;100244.81;;;23.77;50.77
72548;BME280;60570;50.848;6.776;2022-08-19T00:26:46;100241.63;;;23.75;50.82
72548;BME280;60570;50.848;6.776;2022-08-19T00:27:46;100248.09;;;23.76;50.79
72548;BME280;60570;50.848;6.776;2022-08-19T00:28:47;100244.38;;;23.79;50.70
72548;BME280;60570;50.848;6.776;2022-08-19T00:29:48;100250.50;;;23.77;50.79
72548;BME280;60570;50.848;6.776;2022-08-19T00:30:48;100242.06;;;23.74;50.78
72548;BME280;60570;50.848;6.776;2022-08-19T00:31:50;100249.38;;;23.71;50.83
72548;BME280;60570;50.848;6.776;2022-08-19T00:32:54;100242.13;;;23.70;50.95
72548;BME280;60570;50.848;6.776;2022-08-19T00:33:55;100242.91;;;23.71;50.95
72548;BME280;60570;50.848;6.776;2022-08-19T00:34:55;100239.28;;;23.70;51.13
72548;BME280;60570;50.848;6.776;2022-08-19T00:35:56;100243.28;;;23.73;50.89
72548;BME280;60570;50.848;6.776;2022-08-19T00:36:57;100239.69;;;23.69;51.02
72548;BME280;60570;50.848;6.776;2022-08-19T00:37:57;100229.97;;;23.70;51.09
72548;BME280;60570;50.848;6.776;2022-08-19T00:38:58;100229.97;;;23.70;50.80
72548;BME280;60570;50.848;6.776;2022-08-19T00:39:59;100234.44;;;23.67;50.91
72548;BME280;60570;50.848;6.776;2022-08-19T00:40:59;100234.44;;;23.67;50.95
72548;BME280;60570;50.848;6.776;2022-08-19T00:42:00;100234.06;;;23.65;50.95
72548;BME280;60570;50.848;6.776;2022-08-19T00:43:00;100230.81;;;23.67;51.02
72548;BME280;60570;50.848;6.776;2022-08-19T00:44:14;100231.19;;;23.69;51.13
72548;BME280;60570;50.848;6.776;2022-08-19T00:45:17;100226.38;;;23.66;50.94
72548;BME280;60570;50.848;6.776;2022-08-19T00:46:18;100234.06;;;23.65;50.97
72548;BME280;60570;50.848;6.776;2022-08-19T00:47:20;100228.84;;;23.64;51.14
72548;BME280;60570;50.848;6.776;2022-08-19T00:48:21;100228.47;;;23.62;51.00
72548;BME280;60570;50.848;6.776;2022-08-19T00:50:34;100234.06;;;23.65;50.76
72548;BME280;60570;50.848;6.776;2022-08-19T00:51:35;100226.38;;;23.66;51.09
72548;BME280;60570;50.848;6.776;2022-08-19T00:52:40;100233.25;;;23.68;51.04
72548;BME280;60570;50.848;6.776;2022-08-19T00:53:44;100231.25;;;23.65;50.83
72548;BME280;60570;50.848;6.776;2022-08-19T00:54:45;100231.75;;;23.60;50.95
72548;BME280;60570;50.848;6.776;2022-08-19T00:55:49;100233.72;;;23.63;50.85
72548;BME280;60570;50.848;6.776;2022-08-19T00:56:51;100236.91;;;23.65;51.07
72548;BME280;60570;50.848;6.776;2022-08-19T00:57:56;100225.56;;;23.65;51.00
72548;BME280;60570;50.848;6.776;2022-08-19T00:59:00;100233.28;;;23.65;50.84
72548;BME280;60570;50.848;6.776;2022-08-19T01:00:05;100228.91;;;23.60;51.01
72548;BME280;60570;50.848;6.776;2022-08-19T01:01:06;100226.13;;;23.57;51.13
72548;BME280;60570;50.848;6.776;2022-08-19T01:02:08;100223.34;;;23.53;51.03
72548;BME280;60570;50.848;6.776;2022-08-19T01:03:10;100233.47;;;23.54;51.27
72548;BME280;60570;50.848;6.776;2022-08-19T01:04:12;100231.44;;;23.55;50.96
72548;BME280;60570;50.848;6.776;2022-08-19T01:05:16;100230.69;;;23.51;51.53
72548;BME280;60570;50.848;6.776;2022-08-19T01:06:18;100232.72;;;23.50;51.20
72548;BME280;60570;50.848;6.776;2022-08-19T01:07:19;100225.03;;;23.51;51.35
72548;BME280;60570;50.848;6.776;2022-08-19T01:08:20;100232.72;;;23.50;51.45
72548;BME280;60570;50.848;6.776;2022-08-19T01:09:21;100231.91;;;23.50;51.22
72548;BME280;60570;50.848;6.776;2022-08-19T01:10:25;100229.13;;;23.46;51.52
72548;BME280;60570;50.848;6.776;2022-08-19T01:11:27;100235.25;;;23.45;51.55
72548;BME280;60570;50.848;6.776;2022-08-19T01:12:28;100234.00;;;23.46;51.73
72548;BME280;60570;50.848;6.776;2022-08-19T01:13:32;100232.41;;;23.45;51.41
72548;BME280;60570;50.848;6.776;2022-08-19T01:14:33;100230.38;;;23.45;51.43
72548;BME280;60570;50.848;6.776;2022-08-19T01:15:40;100228.69;;;23.48;51.22
72548;BME280;60570;50.848;6.776;2022-08-19T01:16:43;100231.97;;;23.46;51.13
72548;BME280;60570;50.848;6.776;2022-08-19T01:17:44;100230.78;;;23.44;51.19
72548;BME280;60570;50.848;6.776;2022-08-19T01:18:46;100227.47;;;23.49;51.11
72548;BME280;60570;50.848;6.776;2022-08-19T01:19:47;100229.50;;;23.48;51.18
72548;BME280;60570;50.848;6.776;2022-08-19T01:20:48;100225.78;;;23.51;51.08
72548;BME280;60570;50.848;6.776;2022-08-19T01:21:59;100221.00;;;23.48;51.34
72548;BME280;60570;50.848;6.776;2022-08-19T01:23:02;100216.97;;;23.46;51.41
72548;BME280;60570;50.848;6.776;2022-08-19T01:24:03;100224.34;;;23.43;51.31
72548;BME280;60570;50.848;6.776;2022-08-19T01:25:04;100218.22;;;23.45;51.09
72548;BME280;60570;50.848;6.776;2022-08-19T01:26:05;100219.06;;;23.42;51.55
72548;BME280;60570;50.848;6.776;2022-08-19T01:27:05;100213.41;;;23.42;51.18
72548;BME280;60570;50.848;6.776;2022-08-19T01:28:06;100212.63;;;23.41;51.28
72548;BME280;60570;50.848;6.776;2022-08-19T01:29:07;100209.41;;;23.39;51.44
72548;BME280;60570;50.848;6.776;2022-08-19T01:30:10;100211.75;;;23.44;51.34
72548;BME280;60570;50.848;6.776;2022-08-19T01:31:15;100214.66;;;23.41;51.26
72548;BME280;60570;50.848;6.776;2022-08-19T01:32:16;100212.63;;;23.41;51.23
72548;BME280;60570;50.848;6.776;2022-08-19T01:33:18;100216.59;;;23.44;51.43
72548;BME280;60570;50.848;6.776;2022-08-19T01:34:19;100216.22;;;23.42;51.36
72548;BME280;60570;50.848;6.776;2022-08-19T01:35:20;100212.19;;;23.43;51.25
72548;BME280;60570;50.848;6.776;2022-08-19T01:37:29;100212.66;;;23.38;51.58
72548;BME280;60570;50.848;6.776;2022-08-19T01:38:30;100215.56;;;23.34;51.69
72548;BME280;60570;50.848;6.776;2022-08-19T01:39:31;100210.63;;;23.38;51.51
72548;BME280;60570;50.848;6.776;2022-08-19T01:40:33;100209.44;;;23.36;51.50
72548;BME280;60570;50.848;6.776;2022-08-19T01:41:35;100210.56;;;23.42;51.40
72548;BME280;60570;50.848;6.776;2022-08-19T01:42:36;100215.91;;;23.36;51.55
72548;BME280;60570;50.848;6.776;2022-08-19T01:43:37;100206.19;;;23.37;51.64
72548;BME280;60570;50.848;6.776;2022-08-19T01:44:39;100207.78;;;23.38;51.60
72548;BME280;60570;50.848;6.776;2022-08-19T01:45:41;100204.22;;;23.34;51.39
72548;BME280;60570;50.848;6.776;2022-08-19T01:46:42;100207.78;;;23.38;51.50
72548;BME280;60570;50.848;6.776;2022-08-19T01:47:43;100205.81;;;23.35;51.51
72548;BME280;60570;50.848;6.776;2022-08-19T01:48:45;100200.56;;;23.34;51.52
72548;BME280;60570;50.848;6.776;2022-08-19T01:49:46;100196.97;;;23.30;51.79
72548;BME280;60570;50.848;6.776;2022-08-19T01:50:46;100199.41;;;23.31;51.46
72548;BME280;60570;50.848;6.776;2022-08-19T01:51:49;100192.09;;;23.30;51.61
72548;BME280;60570;50.848;6.776;2022-08-19T01:52:49;100192.94;;;23.31;51.59
72548;BME280;60570;50.848;6.776;2022-08-19T01:53:50;100190.47;;;23.33;51.50
72548;BME280;60570;50.848;6.776;2022-08-19T01:54:51;100195.31;;;23.32;51.35
72548;BME280;60570;50.848;6.776;2022-08-19T01:55:51;100194.13;;;23.33;51.53
72548;BME280;60570;50.848;6.776;2022-08-19T01:56:57;100187.72;;;23.26;51.67
72548;BME280;60570;50.848;6.776;2022-08-19T01:58:01;100195.41;;;23.25;51.59
72548;BME280;60570;50.848;6.776;2022-08-19T01:59:08;100190.50;;;23.29;51.66
72548;BME280;60570;50.848;6.776;2022-08-19T02:00:12;100196.13;;;23.33;51.66
72548;BME280;60570;50.848;6.776;2022-08-19T02:01:15;100197.72;;;23.34;51.39
72548;BME280;60570;50.848;6.776;2022-08-19T02:02:15;100195.31;;;23.32;51.57
72548;BME280;60570;50.848;6.776;2022-08-19T02:03:16;100201.44;;;23.31;51.67
72548;BME280;60570;50.848;6.776;2022-08-19T02:04:16;100199.00;;;23.29;51.38
72548;BME280;60570;50.848;6.776;2022-08-19T02:05:17;100201.09;;;23.25;51.71
72548;BME280;60570;50.848;6.776;2022-08-19T02:06:19;100201.91;;;23.26;51.66
72548;BME280;60570;50.848;6.776;2022-08-19T02:07:20;100207.19;;;23.24;51.84
72548;BME280;60570;50.848;6.776;2022-08-19T02:08:24;100208.78;;;23.25;51.76
72548;BME280;60570;50.848;6.776;2022-08-19T02:09:24;100216.00;;;23.29;51.70
72548;BME280;60570;50.848;6.776;2022-08-19T02:10:25;100211.19;;;23.26;51.49
72548;BME280;60570;50.848;6.776;2022-08-19T02:11:28;100214.00;;;23.30;51.89
72548;BME280;60570;50.848;6.776;2022-08-19T02:12:31;100212.44;;;23.25;51.79
72548;BME280;60570;50.848;6.776;2022-08-19T02:13:32;100220.44;;;23.30;51.59
72548;BME280;60570;50.848;6.776;2022-08-19T02:14:35;100213.25;;;23.26;51.50
72548;BME280;60570;50.848;6.776;2022-08-19T02:15:35;100208.78;;;23.25;51.57
72548;BME280;60570;50.848;6.776;2022-08-19T02:16:37;100201.91;;;23.26;51.38
72548;BME280;60570;50.848;6.776;2022-08-19T02:17:39;100200.34;;;23.21;51.94
72548;BME280;60570;50.848;6.776;2022-08-19T02:18:39;100203.19;;;23.21;51.92
72548;BME280;60570;50.848;6.776;2022-08-19T02:19:40;100210.44;;;23.22;51.51
72548;BME280;60570;50.848;6.776;2022-08-19T02:20:41;100202.38;;;23.21;52.02
72548;BME280;60570;50.848;6.776;2022-08-19T02:21:42;100199.97;;;23.19;51.85
72548;BME280;60570;50.848;6.776;2022-08-19T02:22:44;100203.63;;;23.20;52.05
72548;BME280;60570;50.848;6.776;2022-08-19T02:23:45;100211.63;;;23.25;51.70
72548;BME280;60570;50.848;6.776;2022-08-19T02:24:45;100206.81;;;23.22;51.53
72548;BME280;60570;50.848;6.776;2022-08-19T02:25:47;100204.00;;;23.18;51.67
72548;BME280;60570;50.848;6.776;2022-08-19T02:26:48;100209.22;;;23.23;51.95
72548;BME280;60570;50.848;6.776;2022-08-19T02:27:48;100209.66;;;23.22;51.77
72548;BME280;60570;50.848;6.776;2022-08-19T02:28:48;100206.84;;;23.18;52.08
72548;BME280;60570;50.848;6.776;2022-08-19T02:29:50;100209.66;;;23.22;51.62
72548;BME280;60570;50.848;6.776;2022-08-19T02:30:50;100212.06;;;23.23;51.57
72548;BME280;60570;50.848;6.776;2022-08-19T02:31:50;100213.25;;;23.26;51.40
72548;BME280;60570;50.848;6.776;2022-08-19T02:32:52;100213.28;;;23.22;51.58
72548;BME280;60570;50.848;6.776;2022-08-19T02:33:53;100220.63;;;23.20;51.85
72548;BME280;60570;50.848;6.776;2022-08-19T02:34:55;100212.13;;;23.20;51.61
72548;BME280;60570;50.848;6.776;2022-08-19T02:35:55;100216.59;;;23.17;51.75
72548;BME280;60570;50.848;6.776;2022-08-19T02:36:56;100213.38;;;23.15;51.66
72548;BME280;60570;50.848;6.776;2022-08-19T02:37:56;100217.78;;;23.20;51.80
72548;BME280;60570;50.848;6.776;2022-08-19T02:39:15;100219.06;;;23.15;51.85
72548;BME280;60570;50.848;6.776;2022-08-19T02:40:16;100213.81;;;23.13;51.73
72548;BME280;60570;50.848;6.776;2022-08-19T02:41:20;100221.50;;;23.13;51.66
72548;BME280;60570;50.848;6.776;2022-08-19T02:42:21;100216.22;;;23.15;52.00
72548;BME280;60570;50.848;6.776;2022-08-19T02:43:22;100218.69;;;23.13;51.73
72548;BME280;60570;50.848;6.776;2022-08-19T02:44:23;100219.94;;;23.12;51.83
72548;BME280;60570;50.848;6.776;2022-08-19T02:45:24;100216.28;;;23.11;51.76
72548;BME280;60570;50.848;6.776;2022-08-19T02:46:30;100218.69;;;23.13;51.90
72548;BME280;60570;50.848;6.776;2022-08-19T02:47:31;100216.28;;;23.11;51.77
72548;BME280;60570;50.848;6.776;2022-08-19T02:48:32;100219.59;;;23.06;51.86
72548;BME280;60570;50.848;6.776;2022-08-19T02:49:32;100221.19;;;23.07;51.85
72548;BME280;60570;50.848;6.776;2022-08-19T02:50:33;100216.75;;;23.06;51.86
72548;BME280;60570;50.848;6.776;2022-08-19T02:51:40;100216.75;;;23.06;51.99
72548;BME280;60570;50.848;6.776;2022-08-19T02:52:41;100218.81;;;23.06;52.00
72548;BME280;60570;50.848;6.776;2022-08-19T02:53:41;100218.00;;;23.05;51.88
72548;BME280;60570;50.848;6.776;2022-08-19T02:54:42;100219.56;;;23.10;51.77
72548;BME280;60570;50.848;6.776;2022-08-19T02:55:46;100224.84;;;23.08;51.99
72548;BME280;60570;50.848;6.776;2022-08-19T02:56:47;100220.75;;;23.09;51.86
72548;BME280;60570;50.848;6.776;2022-08-19T02:57:47;100219.97;;;23.08;51.86
72548;BME280;60570;50.848;6.776;2022-08-19T02:58:48;100228.50;;;23.05;51.88
72548;BME280;60570;50.848;6.776;2022-08-19T02:59:49;100219.19;;;23.08;51.62
72548;BME280;60570;50.848;6.776;2022-08-19T03:00:52;100220.81;;;23.05;52.02
72548;BME280;60570;50.848;6.776;2022-08-19T03:01:53;100223.66;;;23.05;51.83
72548;BME280;60570;50.848;6.776;2022-08-19T03:02:54;100222.41;;;23.06;51.72
72548;BME280;60570;50.848;6.776;2022-08-19T03:03:55;100219.59;;;23.06;51.66
72548;BME280;60570;50.848;6.776;2022-08-19T03:04:55;100220.44;;;23.03;51.82
72548;BME280;60570;50.848;6.776;2022-08-19T03:06:08;100218.81;;;23.06;51.82
72548;BME280;60570;50.848;6.776;2022-08-19T03:07:09;100219.59;;;23.06;51.92
72548;BME280;60570;50.848;6.776;2022-08-19T03:08:13;100217.19;;;23.05;51.73
72548;BME280;60570;50.848;6.776;2022-08-19T03:09:15;100221.19;;;23.07;51.77
72548;BME280;60570;50.848;6.776;2022-08-19T03:10:16;100223.28;;;23.03;51.57
72548;BME280;60570;50.848;6.776;2022-08-19T03:11:25;100218.03;;;23.02;51.66
72548;BME280;60570;50.848;6.776;2022-08-19T03:12:26;100221.69;;;23.02;51.79
72548;BME280;60570;50.848;6.776;2022-08-19T03:13:26;100220.44;;;23.03;51.68
72548;BME280;60570;50.848;6.776;2022-08-19T03:14:30;100224.47;;;23.06;51.64
72548;BME280;60570;50.848;6.776;2022-08-19T03:15:31;100227.25;;;23.09;51.63
72548;BME280;60570;50.848;6.776;2022-08-19T03:16:39;100222.47;;;23.03;51.66
72548;BME280;60570;50.848;6.776;2022-08-19T03:17:40;100223.66;;;23.05;51.53
72548;BME280;60570;50.848;6.776;2022-08-19T03:18:40;100216.75;;;23.06;51.81
72548;BME280;60570;50.848;6.776;2022-08-19T03:19:40;100222.00;;;23.08;51.76
72548;BME280;60570;50.848;6.776;2022-08-19T03:20:43;100219.63;;;23.03;51.94
72548;BME280;60570;50.848;6.776;2022-08-19T03:21:44;100217.66;;;23.00;52.00
72548;BME280;60570;50.848;6.776;2022-08-19T03:22:47;100224.16;;;23.00;51.61
72548;BME280;60570;50.848;6.776;2022-08-19T03:23:47;100224.94;;;23.01;51.74
72548;BME280;60570;50.848;6.776;2022-08-19T03:24:48;100225.31;;;23.03;51.60
72548;BME280;60570;50.848;6.776;2022-08-19T03:25:50;100222.09;;;23.01;51.67
72548;BME280;60570;50.848;6.776;2022-08-19T03:26:54;100220.13;;;22.98;51.89
72548;BME280;60570;50.848;6.776;2022-08-19T03:27:58;100227.38;;;22.99;51.73
72548;BME280;60570;50.848;6.776;2022-08-19T03:29:02;100233.50;;;22.97;51.91
72548;BME280;60570;50.848;6.776;2022-08-19T03:30:03;100220.59;;;22.93;51.84
72548;BME280;60570;50.848;6.776;2022-08-19T03:31:08;100220.56;;;22.96;51.81
72548;BME280;60570;50.848;6.776;2022-08-19T03:32:10;100228.19;;;22.99;51.72
72548;BME280;60570;50.848;6.776;2022-08-19T03:33:10;100222.97;;;22.98;52.02
72548;BME280;60570;50.848;6.776;2022-08-19T03:34:18;100224.22;;;22.93;51.68
72548;BME280;60570;50.848;6.776;2022-08-19T03:35:19;100219.81;;;22.92;51.94
72548;BME280;60570;50.848;6.776;2022-08-19T03:36:23;100229.94;;;22.90;52.34
72548;BME280;60570;50.848;6.776;2022-08-19T03:37:24;100225.50;;;22.89;52.03
72548;BME280;60570;50.848;6.776;2022-08-19T03:38:25;100231.59;;;22.87;52.14
72548;BME280;60570;50.848;6.776;2022-08-19T03:39:26;100232.34;;;22.91;52.04
72548;BME280;60570;50.848;6.776;2022-08-19T03:40:27;100238.41;;;22.93;52.07
72548;BME280;60570;50.848;6.776;2022-08-19T03:41:32;100249.72;;;22.93;51.88
72548;BME280;60570;50.848;6.776;2022-08-19T03:42:33;100247.34;;;22.92;51.78
72548;BME280;60570;50.848;6.776;2022-08-19T03:43:37;100246.47;;;22.95;51.83
72548;BME280;60570;50.848;6.776;2022-08-19T03:44:38;100240.84;;;22.91;51.96
72548;BME280;60570;50.848;6.776;2022-08-19T03:45:39;100239.66;;;22.92;52.02
72548;BME280;60570;50.848;6.776;2022-08-19T03:46:39;100238.41;;;22.93;51.99
72548;BME280;60570;50.848;6.776;2022-08-19T03:47:40;100241.28;;;22.90;51.92
72548;BME280;60570;50.848;6.776;2022-08-19T03:48:41;100240.91;;;22.88;52.21
72548;BME280;60570;50.848;6.776;2022-08-19T03:49:43;100239.31;;;22.87;51.87
72548;BME280;60570;50.848;6.776;2022-08-19T03:50:43;100236.84;;;22.89;52.11
72548;BME280;60570;50.848;6.776;2022-08-19T03:51:45;100240.91;;;22.88;52.07
72548;BME280;60570;50.848;6.776;2022-08-19T03:52:50;100238.56;;;22.83;52.01
72548;BME280;60570;50.848;6.776;2022-08-19T03:53:51;100243.69;;;22.91;52.02
72548;BME280;60570;50.848;6.776;2022-08-19T03:54:52;100252.66;;;22.86;51.89
72548;BME280;60570;50.848;6.776;2022-08-19T03:55:52;100255.13;;;22.84;52.03
72548;BME280;60570;50.848;6.776;2022-08-19T03:56:55;100249.50;;;22.81;52.36
72548;BME280;60570;50.848;6.776;2022-08-19T03:57:56;100249.09;;;22.82;52.00
72548;BME280;60570;50.848;6.776;2022-08-19T03:58:58;100255.13;;;22.84;52.16
72548;BME280;60570;50.848;6.776;2022-08-19T03:59:59;100257.59;;;22.82;52.13
72548;BME280;60570;50.848;6.776;2022-08-19T04:01:00;100260.75;;;22.88;51.90
72548;BME280;60570;50.848;6.776;2022-08-19T04:02:03;100250.66;;;22.83;52.11
72548;BME280;60570;50.848;6.776;2022-08-19T04:03:05;100252.72;;;22.83;52.11
72548;BME280;60570;50.848;6.776;2022-08-19T04:04:06;100253.56;;;22.80;52.05
72548;BME280;60570;50.848;6.776;2022-08-19T04:05:07;100247.09;;;22.79;52.18
72548;BME280;60570;50.848;6.776;2022-08-19T04:06:17;100252.38;;;22.77;51.96
72548;BME280;60570;50.848;6.776;2022-08-19T04:07:18;100247.94;;;22.76;52.25
72548;BME280;60570;50.848;6.776;2022-08-19T04:08:21;100249.91;;;22.79;52.14
72548;BME280;60570;50.848;6.776;2022-08-19T04:09:22;100251.97;;;22.79;52.16
72548;BME280;60570;50.848;6.776;2022-08-19T04:10:23;100243.03;;;22.80;52.27
72548;BME280;60570;50.848;6.776;2022-08-19T04:11:29;100249.50;;;22.81;51.89
72548;BME280;60570;50.848;6.776;2022-08-19T04:12:31;100253.59;;;22.76;52.42
72548;BME280;60570;50.848;6.776;2022-08-19T04:13:31;100248.75;;;22.77;52.06
72548;BME280;60570;50.848;6.776;2022-08-19T04:14:32;100250.34;;;22.78;52.29
72548;BME280;60570;50.848;6.776;2022-08-19T04:15:33;100252.41;;;22.74;52.33
72548;BME280;60570;50.848;6.776;2022-08-19T04:16:39;100250.41;;;22.74;52.27
72548;BME280;60570;50.848;6.776;2022-08-19T04:17:39;100249.16;;;22.75;52.21
72548;BME280;60570;50.848;6.776;2022-08-19T04:18:40;100257.25;;;22.77;52.17
72548;BME280;60570;50.848;6.776;2022-08-19T04:19:41;100253.22;;;22.74;52.06
72548;BME280;60570;50.848;6.776;2022-08-19T04:20:44;100253.66;;;22.73;52.36
72548;BME280;60570;50.848;6.776;2022-08-19T04:21:49;100253.28;;;22.71;52.35
72548;BME280;60570;50.848;6.776;2022-08-19T04:22:50;100256.13;;;22.71;52.13
72548;BME280;60570;50.848;6.776;2022-08-19T04:23:50;100251.66;;;22.70;52.48
72548;BME280;60570;50.848;6.776;2022-08-19T04:24:51;100250.44;;;22.71;52.37
72548;BME280;60570;50.848;6.776;2022-08-19T04:25:51;100258.13;;;22.70;52.17
72548;BME280;60570;50.848;6.776;2022-08-19T04:26:52;100251.28;;;22.68;52.07
72548;BME280;60570;50.848;6.776;2022-08-19T04:27:52;100254.91;;;22.68;52.41
72548;BME280;60570;50.848;6.776;2022-08-19T04:28:54;100247.22;;;22.69;52.13
72548;BME280;60570;50.848;6.776;2022-08-19T04:29:55;100254.50;;;22.70;52.22
72548;BME280;60570;50.848;6.776;2022-08-19T04:30:55;100253.28;;;22.71;52.03
72548;BME280;60570;50.848;6.776;2022-08-19T04:31:57;100261.41;;;22.69;52.12
72548;BME280;60570;50.848;6.776;2022-08-19T04:32:58;100255.34;;;22.67;52.16
72548;BME280;60570;50.848;6.776;2022-08-19T04:34:00;100257.81;;;22.65;52.31
72548;BME280;60570;50.848;6.776;2022-08-19T04:35:02;100261.84;;;22.64;52.52
72548;BME280;60570;50.848;6.776;2022-08-19T04:36:03;100255.78;;;22.65;52.32
72548;BME280;60570;50.848;6.776;2022-08-19T04:37:05;100259.00;;;22.64;52.53
72548;BME280;60570;50.848;6.776;2022-08-19T04:38:11;100255.34;;;22.67;52.09
72548;BME280;60570;50.848;6.776;2022-08-19T04:39:15;100259.00;;;22.67;52.28
72548;BME280;60570;50.848;6.776;2022-08-19T04:40:15;100258.22;;;22.63;52.41
72548;BME280;60570;50.848;6.776;2022-08-19T04:41:34;100261.44;;;22.65;52.25
72548;BME280;60570;50.848;6.776;2022-08-19T04:42:53;100262.66;;;22.64;52.08
72548;BME280;60570;50.848;6.776;2022-08-19T04:43:53;100260.69;;;22.61;52.29
72548;BME280;60570;50.848;6.776;2022-08-19T04:44:54;100254.63;;;22.59;52.77
72548;BME280;60570;50.848;6.776;2022-08-19T04:45:55;100264.34;;;22.58;52.56
72548;BME280;60570;50.848;6.776;2022-08-19T04:46:56;100260.72;;;22.58;52.48
72548;BME280;60570;50.848;6.776;2022-08-19T04:47:56;100254.63;;;22.59;52.52
72548;BME280;60570;50.848;6.776;2022-08-19T04:48:58;100263.94;;;22.60;52.30
72548;BME280;60570;50.848;6.776;2022-08-19T04:49:59;100259.50;;;22.59;52.29
72548;BME280;60570;50.848;6.776;2022-08-19T04:51:00;100259.91;;;22.57;52.20
72548;BME280;60570;50.848;6.776;2022-08-19T04:52:01;100267.19;;;22.55;52.54
72548;BME280;60570;50.848;6.776;2022-08-19T04:53:01;100261.16;;;22.53;52.56
72548;BME280;60570;50.848;6.776;2022-08-19T04:54:02;100261.16;;;22.53;52.63
72548;BME280;60570;50.848;6.776;2022-08-19T04:55:03;100276.94;;;22.54;52.44
72548;BME280;60570;50.848;6.776;2022-08-19T04:56:24;100272.84;;;22.55;52.75
72548;BME280;60570;50.848;6.776;2022-08-19T04:57:26;100278.94;;;22.53;52.79
72548;BME280;60570;50.848;6.776;2022-08-19T04:58:27;100278.94;;;22.53;52.77
72548;BME280;60570;50.848;6.776;2022-08-19T04:59:27;100281.41;;;22.51;52.38
72548;BME280;60570;50.848;6.776;2022-08-19T05:00:28;100280.59;;;22.51;52.64
72548;BME280;60570;50.848;6.776;2022-08-19T05:01:29;100289.47;;;22.53;52.63
72548;BME280;60570;50.848;6.776;2022-08-19T05:02:30;100288.66;;;22.52;52.38
72548;BME280;60570;50.848;6.776;2022-08-19T05:03:31;100295.13;;;22.53;52.53
72548;BME280;60570;50.848;6.776;2022-08-19T05:04:33;100288.63;;;22.56;52.53
72548;BME280;60570;50.848;6.776;2022-08-19T05:05:39;100300.38;;;22.58;52.22
72548;BME280;60570;50.848;6.776;2022-08-19T05:06:39;100295.94;;;22.53;52.45
72548;BME280;60570;50.848;6.776;2022-08-19T05:07:39;100287.50;;;22.50;52.65
72548;BME280;60570;50.848;6.776;2022-08-19T05:08:41;100290.31;;;22.50;52.66
72548;BME280;60570;50.848;6.776;2022-08-19T05:09:43;100296.00;;;22.50;52.61
72548;BME280;60570;50.848;6.776;2022-08-19T05:10:43;100297.16;;;22.52;52.30
72548;BME280;60570;50.848;6.776;2022-08-19T05:11:44;100296.00;;;22.50;52.49
72548;BME280;60570;50.848;6.776;2022-08-19T05:12:45;100297.19;;;22.49;52.37
72548;BME280;60570;50.848;6.776;2022-08-19T05:13:46;100302.84;;;22.49;52.38
72548;BME280;60570;50.848;6.776;2022-08-19T05:14:48;100291.16;;;22.47;52.84
72548;BME280;60570;50.848;6.776;2022-08-19T05:15:54;100306.94;;;22.48;52.31
72548;BME280;60570;50.848;6.776;2022-08-19T05:16:55;100308.13;;;22.47;52.52
72548;BME280;60570;50.848;6.776;2022-08-19T05:17:55;100306.16;;;22.44;52.70
72548;BME280;60570;50.848;6.776;2022-08-19T05:19:14;100305.69;;;22.49;52.33
72548;BME280;60570;50.848;6.776;2022-08-19T05:20:33;100309.34;;;22.49;52.69
72548;BME280;60570;50.848;6.776;2022-08-19T05:21:52;100307.72;;;22.48;52.59
72548;BME280;60570;50.848;6.776;2022-08-19T05:23:12;100309.75;;;22.48;52.40
72548;BME280;60570;50.848;6.776;2022-08-19T05:24:16;100313.41;;;22.45;52.63
72548;BME280;60570;50.848;6.776;2022-08-19T05:25:19;100306.59;;;22.42;52.30
72548;BME280;60570;50.848;6.776;2022-08-19T05:26:20;100304.16;;;22.41;52.52
72548;BME280;60570;50.848;6.776;2022-08-19T05:27:20;100305.31;;;22.47;52.50